sensor_id;sensor_type;location;lat;lon;timestamp;pressure;altitude;pressure_sealevel;temperature;humidity
61136;BME280;47021;51.340;12.432;2022-11-22T01:02:20;98552.66;;;2.90;72.68
61136;BME280;47021;51.340;12.432;2022-11-22T01:04:52;98548.78;;;2.84;72.95
61136;BME280;47021;51.340;12.432;2022-11-22T01:07:19;98539.31;;;2.85;72.91
61136;BME280;47021;51.340;12.432;2022-11-22T01:09:44;98540.69;;;3.11;72.21
61136;BME280;47021;51.340;12.432;2022-11-22T01:12:23;98541.16;;;3.16;71.93
61136;BME280;47021;51.340;12.432;2022-11-22T01:14:50;98540.84;;;2.88;72.06
61136;BME280;47021;51.340;12.432;2022-11-22T01:17:17;98534.88;;;2.54;73.61
61136;BME280;47021;51.340;12.432;2022-11-22T01:19:44;98536.25;;;2.80;73.11
61136;BME280;47021;51.340;12.432;2022-11-22T01:22:12;98533.34;;;2.73;72.75
61136;BME280;47021;51.340;12.432;2022-11-22T01:24:37;98541.50;;;3.12;71.83
61136;BME280;47021;51.340;12.432;2022-11-22T01:27:02;98543.59;;;3.29;71.32
61136;BME280;47021;51.340;12.432;2022-11-22T01:29:42;98552.97;;;3.30;70.32
61136;BME280;47021;51.340;12.432;2022-11-22T01:32:07;98540.91;;;3.19;71.04
61136;BME280;47021;51.340;12.432;2022-11-22T01:34:47;98549.91;;;3.36;70.84
61136;BME280;47021;51.340;12.432;2022-11-22T01:37:12;98550.31;;;3.52;70.13
61136;BME280;47021;51.340;12.432;2022-11-22T01:39:37;98547.75;;;3.52;69.49
61136;BME280;47021;51.340;12.432;2022-11-22T01:42:02;98549.72;;;3.60;69.51
61136;BME280;47021;51.340;12.432;2022-11-22T01:44:31;98542.41;;;3.76;69.19
61136;BME280;47021;51.340;12.432;2022-11-22T01:47:31;98539.63;;;3.56;68.88
61136;BME280;47021;51.340;12.432;2022-11-22T01:52:41;98527.53;;;3.68;69.17
61136;BME280;47021;51.340;12.432;2022-11-22T01:55:13;98523.81;;;3.82;69.16
61136;BME280;47021;51.340;12.432;2022-11-22T01:57:40;98505.31;;;3.77;68.91
61136;BME280;47021;51.340;12.432;2022-11-22T02:00:08;98497.06;;;3.62;69.19
61136;BME280;47021;51.340;12.432;2022-11-22T02:02:39;98490.72;;;3.34;69.80
61136;BME280;47021;51.340;12.432;2022-11-22T02:05:08;98493.78;;;2.63;72.81
61136;BME280;47021;51.340;12.432;2022-11-22T02:07:49;98495.09;;;3.23;71.23
61136;BME280;47021;51.340;12.432;2022-11-22T02:10:18;98480.63;;;3.63;70.07
61136;BME280;47021;51.340;12.432;2022-11-22T02:12:48;98488.66;;;3.06;71.29
61136;BME280;47021;51.340;12.432;2022-11-22T02:15:15;98485.22;;;3.17;71.66
61136;BME280;47021;51.340;12.432;2022-11-22T02:17:57;98490.56;;;3.36;70.39
61136;BME280;47021;51.340;12.432;2022-11-22T02:20:22;98478.69;;;3.44;70.65
61136;BME280;47021;51.340;12.432;2022-11-22T02:28:13;98465.25;;;3.09;71.59
61136;BME280;47021;51.340;12.432;2022-11-22T02:33:22;98421.03;;;2.71;72.14
61136;BME280;47021;51.340;12.432;2022-11-22T02:35:48;98436.59;;;2.69;72.90
61136;BME280;47021;51.340;12.432;2022-11-22T02:38:16;98444.84;;;3.06;72.32
61136;BME280;47021;51.340;12.432;2022-11-22T02:43:33;98457.06;;;3.36;70.53
61136;BME280;47021;51.340;12.432;2022-11-22T02:46:06;98452.06;;;3.55;69.79
61136;BME280;47021;51.340;12.432;2022-11-22T02:48:32;98451.59;;;3.50;69.52
61136;BME280;47021;51.340;12.432;2022-11-22T02:50:57;98449.47;;;3.55;69.24
61136;BME280;47021;51.340;12.432;2022-11-22T02:53:24;98444.94;;;3.47;69.15
61136;BME280;47021;51.340;12.432;2022-11-22T02:55:51;98435.53;;;3.67;69.08
61136;BME280;47021;51.340;12.432;2022-11-22T02:58:17;98446.81;;;3.14;70.66
61136;BME280;47021;51.340;12.432;2022-11-22T03:00:42;98444.28;;;3.34;70.07
61136;BME280;47021;51.340;12.432;2022-11-22T03:03:07;98447.13;;;3.52;69.77
61136;BME280;47021;51.340;12.432;2022-11-22T03:05:33;98447.66;;;3.35;69.84
61136;BME280;47021;51.340;12.432;2022-11-22T03:08:00;98452.94;;;3.33;69.99
61136;BME280;47021;51.340;12.432;2022-11-22T03:10:25;98447.19;;;2.98;71.48
61136;BME280;47021;51.340;12.432;2022-11-22T03:12:50;98441.06;;;3.42;69.95
61136;BME280;47021;51.340;12.432;2022-11-22T03:15:16;98442.34;;;3.68;69.38
61136;BME280;47021;51.340;12.432;2022-11-22T03:17:41;98440.47;;;3.70;68.84
61136;BME280;47021;51.340;12.432;2022-11-22T03:20:06;98441.34;;;3.60;69.51
61136;BME280;47021;51.340;12.432;2022-11-22T03:22:31;98439.69;;;3.38;69.74
61136;BME280;47021;51.340;12.432;2022-11-22T03:24:57;98430.38;;;3.67;69.23
61136;BME280;47021;51.340;12.432;2022-11-22T03:27:22;98431.59;;;3.63;69.94
61136;BME280;47021;51.340;12.432;2022-11-22T03:29:48;98432.16;;;3.14;71.10
61136;BME280;47021;51.340;12.432;2022-11-22T03:32:14;98420.31;;;3.43;70.87
61136;BME280;47021;51.340;12.432;2022-11-22T03:34:40;98435.53;;;3.67;69.95
61136;BME280;47021;51.340;12.432;2022-11-22T03:37:05;98436.19;;;3.28;71.65
61136;BME280;47021;51.340;12.432;2022-11-22T03:39:34;98432.34;;;3.75;70.18
61136;BME280;47021;51.340;12.432;2022-11-22T03:42:00;98432.78;;;3.80;70.13
61136;BME280;47021;51.340;12.432;2022-11-22T03:44:25;98432.66;;;3.61;70.39
61136;BME280;47021;51.340;12.432;2022-11-22T03:46:56;98435.91;;;4.04;69.32
61136;BME280;47021;51.340;12.432;2022-11-22T03:49:21;98437.25;;;3.98;69.69
61136;BME280;47021;51.340;12.432;2022-11-22T03:51:52;98430.88;;;4.02;69.28
61136;BME280;47021;51.340;12.432;2022-11-22T03:54:18;98425.34;;;3.86;69.72
61136;BME280;47021;51.340;12.432;2022-11-22T03:56:43;98425.34;;;4.07;69.54
61136;BME280;47021;51.340;12.432;2022-11-22T03:59:10;98420.47;;;4.13;69.37
61136;BME280;47021;51.340;12.432;2022-11-22T04:01:35;98421.31;;;3.93;69.91
61136;BME280;47021;51.340;12.432;2022-11-22T04:04:00;98419.38;;;3.86;70.35
61136;BME280;47021;51.340;12.432;2022-11-22T04:06:31;98413.34;;;3.96;70.66
61136;BME280;47021;51.340;12.432;2022-11-22T04:09:09;98408.88;;;3.57;72.07
61136;BME280;47021;51.340;12.432;2022-11-22T04:11:35;98415.56;;;3.90;71.61
61136;BME280;47021;51.340;12.432;2022-11-22T04:14:02;98412.16;;;3.59;71.88
61136;BME280;47021;51.340;12.432;2022-11-22T04:16:29;98411.94;;;3.92;71.83
61136;BME280;47021;51.340;12.432;2022-11-22T04:18:54;98411.16;;;4.01;71.45
61136;BME280;47021;51.340;12.432;2022-11-22T04:21:20;98406.00;;;4.01;71.14
61136;BME280;47021;51.340;12.432;2022-11-22T04:23:48;98401.06;;;3.89;71.93
61136;BME280;47021;51.340;12.432;2022-11-22T04:26:15;98403.34;;;4.12;71.28
61136;BME280;47021;51.340;12.432;2022-11-22T04:28:42;98411.00;;;3.73;71.96
61136;BME280;47021;51.340;12.432;2022-11-22T04:31:09;98408.13;;;3.66;72.81
61136;BME280;47021;51.340;12.432;2022-11-22T04:33:35;98408.75;;;3.79;72.42
61136;BME280;47021;51.340;12.432;2022-11-22T04:36:01;98411.25;;;3.70;72.87
61136;BME280;47021;51.340;12.432;2022-11-22T04:38:26;98409.25;;;3.73;72.31
61136;BME280;47021;51.340;12.432;2022-11-22T04:40:57;98413.91;;;3.79;72.18
61136;BME280;47021;51.340;12.432;2022-11-22T04:43:27;98402.72;;;3.99;71.67
61136;BME280;47021;51.340;12.432;2022-11-22T04:45:52;98404.38;;;4.00;71.96
61136;BME280;47021;51.340;12.432;2022-11-22T04:48:18;98399.03;;;3.92;72.27
61136;BME280;47021;51.340;12.432;2022-11-22T04:50:43;98400.50;;;4.15;71.76
61136;BME280;47021;51.340;12.432;2022-11-22T04:53:08;98388.25;;;4.08;71.39
61136;BME280;47021;51.340;12.432;2022-11-22T04:55:34;98390.91;;;3.76;72.36
61136;BME280;47021;51.340;12.432;2022-11-22T04:57:59;98386.81;;;3.32;73.74
61136;BME280;47021;51.340;12.432;2022-11-22T05:00:24;98399.25;;;3.38;73.99
61136;BME280;47021;51.340;12.432;2022-11-22T05:02:49;98393.84;;;3.62;73.26
61136;BME280;47021;51.340;12.432;2022-11-22T05:05:14;98400.09;;;3.90;72.09
61136;BME280;47021;51.340;12.432;2022-11-22T05:07:41;98407.03;;;3.27;73.33
61136;BME280;47021;51.340;12.432;2022-11-22T05:10:08;98419.19;;;3.57;73.28
61136;BME280;47021;51.340;12.432;2022-11-22T05:12:40;98418.63;;;3.74;72.37
61136;BME280;47021;51.340;12.432;2022-11-22T05:15:08;98421.66;;;3.58;72.19
61136;BME280;47021;51.340;12.432;2022-11-22T05:17:36;98419.00;;;3.70;71.95
61136;BME280;47021;51.340;12.432;2022-11-22T05:22:31;98426.47;;;4.14;70.38
61136;BME280;47021;51.340;12.432;2022-11-22T05:24:57;98437.81;;;4.02;70.86
61136;BME280;47021;51.340;12.432;2022-11-22T05:27:23;98435.00;;;3.84;71.17
61136;BME280;47021;51.340;12.432;2022-11-22T05:30:01;98433.94;;;3.87;71.33
61136;BME280;47021;51.340;12.432;2022-11-22T05:32:28;98427.50;;;4.32;70.11
61136;BME280;47021;51.340;12.432;2022-11-22T05:34:55;98437.53;;;4.25;70.35
61136;BME280;47021;51.340;12.432;2022-11-22T05:37:21;98445.19;;;4.37;69.93
61136;BME280;47021;51.340;12.432;2022-11-22T05:39:48;98448.88;;;4.44;69.87
61136;BME280;47021;51.340;12.432;2022-11-22T05:42:13;98449.75;;;4.54;69.48
61136;BME280;47021;51.340;12.432;2022-11-22T05:44:45;98448.03;;;3.83;70.97
61136;BME280;47021;51.340;12.432;2022-11-22T05:47:17;98440.41;;;3.81;71.84
61136;BME280;47021;51.340;12.432;2022-11-22T05:49:44;98443.81;;;3.82;71.58
61136;BME280;47021;51.340;12.432;2022-11-22T05:52:16;98440.84;;;3.66;72.14
61136;BME280;47021;51.340;12.432;2022-11-22T05:57:26;98445.28;;;3.43;72.65
61136;BME280;47021;51.340;12.432;2022-11-22T05:59:52;98452.44;;;3.50;72.76
61136;BME280;47021;51.340;12.432;2022-11-22T06:02:17;98459.28;;;4.02;71.61
61136;BME280;47021;51.340;12.432;2022-11-22T06:04:42;98453.19;;;4.34;70.02
61136;BME280;47021;51.340;12.432;2022-11-22T06:07:13;98458.69;;;4.19;69.60
61136;BME280;47021;51.340;12.432;2022-11-22T06:09:41;98450.25;;;4.17;70.57
61136;BME280;47021;51.340;12.432;2022-11-22T06:15:04;98456.25;;;3.97;71.62
61136;BME280;47021;51.340;12.432;2022-11-22T06:17:32;98467.03;;;4.02;71.07
61136;BME280;47021;51.340;12.432;2022-11-22T06:20:06;98468.72;;;4.13;70.80
61136;BME280;47021;51.340;12.432;2022-11-22T06:22:32;98473.75;;;4.14;70.54
61136;BME280;47021;51.340;12.432;2022-11-22T06:27:41;98472.72;;;4.57;71.45
61136;BME280;47021;51.340;12.432;2022-11-22T06:30:06;98466.66;;;4.77;69.96
61136;BME280;47021;51.340;12.432;2022-11-22T06:32:32;98466.31;;;4.51;70.03
61136;BME280;47021;51.340;12.432;2022-11-22T06:35:11;98471.66;;;4.29;69.82
61136;BME280;47021;51.340;12.432;2022-11-22T06:37:36;98469.72;;;4.52;69.95
61136;BME280;47021;51.340;12.432;2022-11-22T06:40:19;98467.56;;;4.57;69.20
61136;BME280;47021;51.340;12.432;2022-11-22T06:42:46;98473.56;;;4.06;70.39
61136;BME280;47021;51.340;12.432;2022-11-22T06:45:13;98469.38;;;4.36;70.02
61136;BME280;47021;51.340;12.432;2022-11-22T06:50:28;98472.41;;;4.20;69.80
61136;BME280;47021;51.340;12.432;2022-11-22T06:52:54;98477.59;;;4.20;70.32
61136;BME280;47021;51.340;12.432;2022-11-22T06:55:19;98487.16;;;4.29;69.45
61136;BME280;47021;51.340;12.432;2022-11-22T06:57:49;98480.56;;;4.46;69.55
61136;BME280;47021;51.340;12.432;2022-11-22T07:00:14;98485.34;;;4.20;69.75
61136;BME280;47021;51.340;12.432;2022-11-22T07:02:41;98480.81;;;4.43;69.24
61136;BME280;47021;51.340;12.432;2022-11-22T07:05:12;98471.84;;;4.37;69.20
61136;BME280;47021;51.340;12.432;2022-11-22T07:07:40;98468.56;;;4.35;69.49
61136;BME280;47021;51.340;12.432;2022-11-22T07:10:05;98472.13;;;4.44;68.70
61136;BME280;47021;51.340;12.432;2022-11-22T07:12:30;98462.28;;;4.28;69.39
61136;BME280;47021;51.340;12.432;2022-11-22T07:14:55;98469.94;;;3.88;70.50
61136;BME280;47021;51.340;12.432;2022-11-22T07:17:22;98473.41;;;3.78;71.39
61136;BME280;47021;51.340;12.432;2022-11-22T07:19:48;98470.47;;;4.33;69.86
61136;BME280;47021;51.340;12.432;2022-11-22T07:24:57;98475.75;;;4.32;69.15
61136;BME280;47021;51.340;12.432;2022-11-22T07:27:22;98477.91;;;4.06;70.68
61136;BME280;47021;51.340;12.432;2022-11-22T07:29:49;98482.31;;;3.94;71.06
61136;BME280;47021;51.340;12.432;2022-11-22T07:32:14;98476.28;;;4.25;70.70
61136;BME280;47021;51.340;12.432;2022-11-22T07:34:46;98483.72;;;4.49;69.83
61136;BME280;47021;51.340;12.432;2022-11-22T07:37:11;98486.22;;;4.70;68.88
61136;BME280;47021;51.340;12.432;2022-11-22T07:39:37;98488.13;;;4.68;69.12
61136;BME280;47021;51.340;12.432;2022-11-22T07:42:17;98495.72;;;4.29;70.49
61136;BME280;47021;51.340;12.432;2022-11-22T07:50:16;98500.34;;;4.96;68.38
61136;BME280;47021;51.340;12.432;2022-11-22T07:52:42;98500.78;;;5.11;68.08
61136;BME280;47021;51.340;12.432;2022-11-22T07:55:14;98503.56;;;4.79;68.86
61136;BME280;47021;51.340;12.432;2022-11-22T07:57:40;98513.44;;;5.04;68.31
61136;BME280;47021;51.340;12.432;2022-11-22T08:00:05;98525.47;;;5.24;68.05
61136;BME280;47021;51.340;12.432;2022-11-22T08:02:31;98509.28;;;5.41;67.81
61136;BME280;47021;51.340;12.432;2022-11-22T08:04:56;98513.22;;;5.55;66.98
61136;BME280;47021;51.340;12.432;2022-11-22T08:07:24;98514.06;;;5.55;66.72
61136;BME280;47021;51.340;12.432;2022-11-22T08:09:57;98517.22;;;5.59;66.54
61136;BME280;47021;51.340;12.432;2022-11-22T08:12:28;98514.75;;;5.77;66.28
61136;BME280;47021;51.340;12.432;2022-11-22T08:14:53;98518.88;;;5.89;66.02
61136;BME280;47021;51.340;12.432;2022-11-22T08:17:19;98516.25;;;5.98;65.95
61136;BME280;47021;51.340;12.432;2022-11-22T08:19:44;98518.47;;;5.93;65.65
61136;BME280;47021;51.340;12.432;2022-11-22T08:22:09;98508.59;;;6.16;66.13
61136;BME280;47021;51.340;12.432;2022-11-22T08:24:42;98504.78;;;6.01;65.99
61136;BME280;47021;51.340;12.432;2022-11-22T08:27:14;98512.44;;;5.73;66.59
61136;BME280;47021;51.340;12.432;2022-11-22T08:29:40;98513.09;;;5.76;66.42
61136;BME280;47021;51.340;12.432;2022-11-22T08:32:05;98508.47;;;6.08;66.31
61136;BME280;47021;51.340;12.432;2022-11-22T08:34:30;98504.22;;;6.26;66.06
61136;BME280;47021;51.340;12.432;2022-11-22T08:36:55;98508.91;;;5.94;66.32
61136;BME280;47021;51.340;12.432;2022-11-22T08:39:28;98509.13;;;6.19;65.90
61136;BME280;47021;51.340;12.432;2022-11-22T08:41:53;98510.09;;;6.18;65.80
61136;BME280;47021;51.340;12.432;2022-11-22T08:44:19;98515.31;;;6.09;66.04
61136;BME280;47021;51.340;12.432;2022-11-22T08:46:46;98524.44;;;6.13;66.96
61136;BME280;47021;51.340;12.432;2022-11-22T08:49:24;98523.44;;;6.33;66.21
61136;BME280;47021;51.340;12.432;2022-11-22T08:52:02;98522.03;;;6.48;65.54
61136;BME280;47021;51.340;12.432;2022-11-22T08:54:27;98528.06;;;6.39;66.14
61136;BME280;47021;51.340;12.432;2022-11-22T08:57:00;98528.78;;;6.22;65.99
61136;BME280;47021;51.340;12.432;2022-11-22T08:59:27;98539.31;;;6.67;65.72
61136;BME280;47021;51.340;12.432;2022-11-22T09:04:24;98551.53;;;6.84;64.65
61136;BME280;47021;51.340;12.432;2022-11-22T09:06:49;98557.47;;;6.67;65.88
61136;BME280;47021;51.340;12.432;2022-11-22T09:09:32;98562.31;;;6.79;65.43
61136;BME280;47021;51.340;12.432;2022-11-22T09:11:57;98561.81;;;6.76;65.00
61136;BME280;47021;51.340;12.432;2022-11-22T09:14:23;98570.28;;;6.68;65.74
61136;BME280;47021;51.340;12.432;2022-11-22T09:16:48;98578.22;;;6.67;65.31
61136;BME280;47021;51.340;12.432;2022-11-22T09:19:13;98575.97;;;6.81;65.24
61136;BME280;47021;51.340;12.432;2022-11-22T09:21:39;98577.84;;;6.98;65.44
61136;BME280;47021;51.340;12.432;2022-11-22T09:24:04;98574.03;;;6.93;65.35
61136;BME280;47021;51.340;12.432;2022-11-22T09:26:32;98574.19;;;7.19;65.15
61136;BME280;47021;51.340;12.432;2022-11-22T09:28:58;98570.56;;;7.29;64.97
61136;BME280;47021;51.340;12.432;2022-11-22T09:31:23;98571.94;;;7.33;64.24
61136;BME280;47021;51.340;12.432;2022-11-22T09:33:49;98578.22;;;7.31;64.36
61136;BME280;47021;51.340;12.432;2022-11-22T09:36:18;98581.38;;;6.97;64.53
61136;BME280;47021;51.340;12.432;2022-11-22T09:38:44;98576.31;;;7.33;64.36
61136;BME280;47021;51.340;12.432;2022-11-22T09:51:55;98583.44;;;7.31;63.41
61136;BME280;47021;51.340;12.432;2022-11-22T09:54:26;98587.88;;;7.11;64.24
61136;BME280;47021;51.340;12.432;2022-11-22T09:56:54;98586.97;;;7.30;64.25
61136;BME280;47021;51.340;12.432;2022-11-22T09:59:24;98586.38;;;7.36;63.70
61136;BME280;47021;51.340;12.432;2022-11-22T10:02:02;98585.63;;;7.53;63.73
61136;BME280;47021;51.340;12.432;2022-11-22T10:04:31;98580.94;;;7.56;63.35
61136;BME280;47021;51.340;12.432;2022-11-22T10:07:00;98577.56;;;7.29;64.44
61136;BME280;47021;51.340;12.432;2022-11-22T10:20:23;98572.56;;;7.62;63.79
61136;BME280;47021;51.340;12.432;2022-11-22T10:22:50;98569.69;;;7.83;63.58
61136;BME280;47021;51.340;12.432;2022-11-22T10:25:26;98564.13;;;7.60;63.63
61136;BME280;47021;51.340;12.432;2022-11-22T10:27:59;98561.69;;;7.76;64.40
61136;BME280;47021;51.340;12.432;2022-11-22T10:30:31;98565.16;;;8.03;63.60
61136;BME280;47021;51.340;12.432;2022-11-22T10:41:03;98583.56;;;8.09;63.29
61136;BME280;47021;51.340;12.432;2022-11-22T10:43:38;98579.88;;;8.29;63.14
61136;BME280;47021;51.340;12.432;2022-11-22T10:46:25;98587.84;;;8.18;63.18
61136;BME280;47021;51.340;12.432;2022-11-22T11:01:53;98572.06;;;8.29;63.25
61136;BME280;47021;51.340;12.432;2022-11-22T11:04:21;98571.16;;;8.64;61.95
61136;BME280;47021;51.340;12.432;2022-11-22T11:06:51;98578.16;;;8.64;63.37
61136;BME280;47021;51.340;12.432;2022-11-22T11:09:20;98578.19;;;8.72;63.13
61136;BME280;47021;51.340;12.432;2022-11-22T11:11:48;98572.03;;;8.73;62.51
61136;BME280;47021;51.340;12.432;2022-11-22T11:14:35;98572.53;;;8.76;63.41
61136;BME280;47021;51.340;12.432;2022-11-22T11:17:05;98575.03;;;8.86;62.70
61136;BME280;47021;51.340;12.432;2022-11-22T11:19:36;98583.16;;;8.83;63.30
61136;BME280;47021;51.340;12.432;2022-11-22T11:22:16;98568.66;;;8.80;63.37
61136;BME280;47021;51.340;12.432;2022-11-22T11:24:42;98575.34;;;8.83;63.18
61136;BME280;47021;51.340;12.432;2022-11-22T11:27:08;98571.75;;;8.50;64.60
61136;BME280;47021;51.340;12.432;2022-11-22T11:32:09;98567.94;;;8.44;64.65
61136;BME280;47021;51.340;12.432;2022-11-22T11:34:36;98567.69;;;8.56;64.64
61136;BME280;47021;51.340;12.432;2022-11-22T11:37:37;98568.44;;;8.48;65.11
61136;BME280;47021;51.340;12.432;2022-11-22T11:40:23;98565.63;;;8.41;64.60
61136;BME280;47021;51.340;12.432;2022-11-22T11:45:33;98561.06;;;8.61;64.29
61136;BME280;47021;51.340;12.432;2022-11-22T11:47:59;98560.63;;;8.66;64.63
61136;BME280;47021;51.340;12.432;2022-11-22T11:50:31;98556.78;;;8.78;63.90
61136;BME280;47021;51.340;12.432;2022-11-22T11:53:03;98550.31;;;8.82;64.10
61136;BME280;47021;51.340;12.432;2022-11-22T11:55:35;98547.66;;;9.07;63.44
61136;BME280;47021;51.340;12.432;2022-11-22T11:58:13;98560.94;;;8.96;63.59
61136;BME280;47021;51.340;12.432;2022-11-22T12:00:43;98559.41;;;9.19;62.94
61136;BME280;47021;51.340;12.432;2022-11-22T12:03:09;98556.53;;;8.89;63.86
61136;BME280;47021;51.340;12.432;2022-11-22T12:05:36;98561.25;;;8.42;65.74
61136;BME280;47021;51.340;12.432;2022-11-22T12:08:09;98551.44;;;8.53;65.74
61136;BME280;47021;51.340;12.432;2022-11-22T12:14:02;98554.00;;;9.13;64.07
61136;BME280;47021;51.340;12.432;2022-11-22T12:24:00;98556.72;;;9.45;63.77
61136;BME280;47021;51.340;12.432;2022-11-22T12:26:28;98553.53;;;9.67;62.87
61136;BME280;47021;51.340;12.432;2022-11-22T12:28:59;98551.13;;;9.74;62.80
61136;BME280;47021;51.340;12.432;2022-11-22T12:34:00;98549.16;;;9.84;62.90
61136;BME280;47021;51.340;12.432;2022-11-22T12:38:51;98543.47;;;9.97;63.12
61136;BME280;47021;51.340;12.432;2022-11-22T12:41:24;98553.53;;;9.75;63.87
61136;BME280;47021;51.340;12.432;2022-11-22T12:43:53;98556.81;;;10.02;63.59
61136;BME280;47021;51.340;12.432;2022-11-22T12:46:25;98568.28;;;10.25;62.67
61136;BME280;47021;51.340;12.432;2022-11-22T12:51:26;98569.22;;;10.08;63.15
61136;BME280;47021;51.340;12.432;2022-11-22T12:54:00;98571.34;;;9.96;63.97
61136;BME280;47021;51.340;12.432;2022-11-22T12:56:28;98567.56;;;9.82;64.28
61136;BME280;47021;51.340;12.432;2022-11-22T13:01:43;98565.31;;;9.87;64.37
61136;BME280;47021;51.340;12.432;2022-11-22T13:07:00;98568.09;;;10.10;63.50
61136;BME280;47021;51.340;12.432;2022-11-22T13:09:30;98560.25;;;10.02;63.99
61136;BME280;47021;51.340;12.432;2022-11-22T13:12:02;98565.63;;;10.09;63.68
61136;BME280;47021;51.340;12.432;2022-11-22T13:14:31;98567.63;;;10.31;63.42
61136;BME280;47021;51.340;12.432;2022-11-22T13:17:07;98563.03;;;10.41;62.66
61136;BME280;47021;51.340;12.432;2022-11-22T13:24:54;98569.91;;;10.26;63.74
61136;BME280;47021;51.340;12.432;2022-11-22T13:30:18;98556.03;;;10.41;62.94
61136;BME280;47021;51.340;12.432;2022-11-22T13:32:46;98556.53;;;10.21;63.72
61136;BME280;47021;51.340;12.432;2022-11-22T13:40:47;98556.38;;;10.22;64.01
61136;BME280;47021;51.340;12.432;2022-11-22T13:45:56;98552.94;;;10.06;64.61
61136;BME280;47021;51.340;12.432;2022-11-22T13:51:14;98550.19;;;10.23;64.27
61136;BME280;47021;51.340;12.432;2022-11-22T13:53:49;98556.56;;;10.29;64.46
61136;BME280;47021;51.340;12.432;2022-11-22T13:58:53;98553.25;;;10.11;64.64
61136;BME280;47021;51.340;12.432;2022-11-22T14:06:46;98551.47;;;10.03;64.92
61136;BME280;47021;51.340;12.432;2022-11-22T14:11:49;98556.03;;;10.01;65.36
61136;BME280;47021;51.340;12.432;2022-11-22T14:14:22;98557.47;;;9.87;65.38
61136;BME280;47021;51.340;12.432;2022-11-22T14:24:41;98553.53;;;9.67;66.00
61136;BME280;47021;51.340;12.432;2022-11-22T14:32:24;98547.19;;;9.78;65.47
61136;BME280;47021;51.340;12.432;2022-11-22T14:35:15;98551.59;;;9.77;65.02
61136;BME280;47021;51.340;12.432;2022-11-22T14:37:47;98544.53;;;9.54;65.62
61136;BME280;47021;51.340;12.432;2022-11-22T14:45:44;98549.88;;;9.36;66.47
61136;BME280;47021;51.340;12.432;2022-11-22T14:55:55;98556.06;;;9.01;66.91
61136;BME280;47021;51.340;12.432;2022-11-22T14:58:22;98551.41;;;9.13;66.78
61136;BME280;47021;51.340;12.432;2022-11-22T15:13:53;98565.47;;;8.61;67.25
61136;BME280;47021;51.340;12.432;2022-11-22T15:16:29;98560.56;;;8.58;67.66
61136;BME280;47021;51.340;12.432;2022-11-22T15:18:57;98565.72;;;8.49;68.18
61136;BME280;47021;51.340;12.432;2022-11-22T15:21:24;98569.59;;;8.45;68.00
61136;BME280;47021;51.340;12.432;2022-11-22T15:23:52;98568.03;;;8.35;68.27
61136;BME280;47021;51.340;12.432;2022-11-22T15:29:02;98580.53;;;8.31;68.25
61136;BME280;47021;51.340;12.432;2022-11-22T15:31:43;98582.97;;;8.33;68.13
61136;BME280;47021;51.340;12.432;2022-11-22T15:34:19;98593.38;;;8.15;68.61
61136;BME280;47021;51.340;12.432;2022-11-22T15:39:15;98598.09;;;8.02;68.60
61136;BME280;47021;51.340;12.432;2022-11-22T15:41:48;98604.50;;;8.08;68.39
61136;BME280;47021;51.340;12.432;2022-11-22T15:44:18;98604.28;;;8.01;68.82
61136;BME280;47021;51.340;12.432;2022-11-22T15:46:49;98612.88;;;7.84;68.75
61136;BME280;47021;51.340;12.432;2022-11-22T15:49:16;98616.69;;;8.07;68.47
61136;BME280;47021;51.340;12.432;2022-11-22T15:51:56;98612.97;;;8.10;68.17
61136;BME280;47021;51.340;12.432;2022-11-22T15:57:20;98620.63;;;7.94;69.06
61136;BME280;47021;51.340;12.432;2022-11-22T15:59:48;98613.91;;;7.73;69.70
61136;BME280;47021;51.340;12.432;2022-11-22T16:02:19;98631.31;;;7.91;69.42
61136;BME280;47021;51.340;12.432;2022-11-22T16:04:47;98624.47;;;7.90;69.49
61136;BME280;47021;51.340;12.432;2022-11-22T16:07:24;98641.63;;;7.82;69.91
61136;BME280;47021;51.340;12.432;2022-11-22T16:09:58;98646.00;;;7.82;69.67
61136;BME280;47021;51.340;12.432;2022-11-22T16:12:40;98644.41;;;7.71;69.45
61136;BME280;47021;51.340;12.432;2022-11-22T16:18:22;98648.34;;;7.75;68.99
61136;BME280;47021;51.340;12.432;2022-11-22T16:23:26;98645.13;;;7.64;69.68
61136;BME280;47021;51.340;12.432;2022-11-22T16:25:52;98652.38;;;7.70;69.66
61136;BME280;47021;51.340;12.432;2022-11-22T16:33:29;98649.03;;;7.77;69.29
61136;BME280;47021;51.340;12.432;2022-11-22T16:36:07;98651.81;;;7.66;69.46
61136;BME280;47021;51.340;12.432;2022-11-22T16:38:33;98656.81;;;7.77;69.45
61136;BME280;47021;51.340;12.432;2022-11-22T16:40:59;98655.56;;;7.81;68.99
61136;BME280;47021;51.340;12.432;2022-11-22T16:43:27;98659.22;;;7.89;69.30
61136;BME280;47021;51.340;12.432;2022-11-22T16:46:02;98667.31;;;7.86;68.61
61136;BME280;47021;51.340;12.432;2022-11-22T16:48:28;98666.22;;;7.88;69.04
61136;BME280;47021;51.340;12.432;2022-11-22T16:51:04;98670.59;;;7.88;68.60
61136;BME280;47021;51.340;12.432;2022-11-22T16:53:36;98674.75;;;7.98;68.56
61136;BME280;47021;51.340;12.432;2022-11-22T16:56:03;98668.28;;;8.02;68.64
61136;BME280;47021;51.340;12.432;2022-11-22T16:58:29;98677.41;;;7.89;69.11
61136;BME280;47021;51.340;12.432;2022-11-22T17:00:54;98682.50;;;8.08;68.36
61136;BME280;47021;51.340;12.432;2022-11-22T17:03:21;98680.72;;;8.08;68.53
61136;BME280;47021;51.340;12.432;2022-11-22T17:05:53;98677.50;;;7.97;68.91
61136;BME280;47021;51.340;12.432;2022-11-22T17:08:35;98678.00;;;8.00;68.59
61136;BME280;47021;51.340;12.432;2022-11-22T17:13:45;98688.78;;;7.88;69.00
61136;BME280;47021;51.340;12.432;2022-11-22T17:16:22;98696.19;;;8.00;68.82
61136;BME280;47021;51.340;12.432;2022-11-22T17:18:48;98701.41;;;8.00;69.01
61136;BME280;47021;51.340;12.432;2022-11-22T17:21:16;98703.22;;;8.00;68.98
61136;BME280;47021;51.340;12.432;2022-11-22T17:23:49;98701.72;;;7.97;68.81
61136;BME280;47021;51.340;12.432;2022-11-22T17:26:15;98697.69;;;7.58;70.41
61136;BME280;47021;51.340;12.432;2022-11-22T17:28:41;98704.06;;;7.63;70.34
61136;BME280;47021;51.340;12.432;2022-11-22T17:33:51;98708.34;;;7.82;69.62